sensor_id;sensor_type;location;lat;lon;timestamp;temperature;humidity
11087;DHT22;5597;47.588;9.642;2023-08-07T00:00:21;13.70;99.90
11087;DHT22;5597;47.588;9.642;2023-08-07T00:02:47;13.70;99.90
11087;DHT22;5597;47.588;9.642;2023-08-07T00:05:13;13.70;99.90
11087;DHT22;5597;47.588;9.642;2023-08-07T00:07:39;13.70;99.90
11087;DHT22;5597;47.588;9.642;2023-08-07T00:10:05;13.60;99.90
11087;DHT22;5597;47.588;9.642;2023-08-07T00:12:31;13.60;99.90
11087;DHT22;5597;47.588;9.642;2023-08-07T00:14:57;13.60;99.90
11087;DHT22;5597;47.588;9.642;2023-08-07T00:17:23;13.60;99.90
11087;DHT22;5597;47.588;9.642;2023-08-07T00:19:49;13.60;99.90
11087;DHT22;5597;47.588;9.642;2023-08-07T00:22:14;13.60;99.90
11087;DHT22;5597;47.588;9.642;2023-08-07T00:24:40;13.60;99.90
11087;DHT22;5597;47.588;9.642;2023-08-07T00:27:07;13.60;99.90
11087;DHT22;5597;47.588;9.642;2023-08-07T00:29:35;13.60;99.90
11087;DHT22;5597;47.588;9.642;2023-08-07T00:32:02;13.60;99.90
11087;DHT22;5597;47.588;9.642;2023-08-07T00:34:28;13.60;99.90
11087;DHT22;5597;47.588;9.642;2023-08-07T00:36:53;13.60;99.90
11087;DHT22;5597;47.588;9.642;2023-08-07T00:39:19;13.60;99.90
11087;DHT22;5597;47.588;9.642;2023-08-07T00:41:45;13.60;99.90
11087;DHT22;5597;47.588;9.642;2023-08-07T00:44:10;13.60;99.90
11087;DHT22;5597;47.588;9.642;2023-08-07T00:46:36;13.60;99.90
11087;DHT22;5597;47.588;9.642;2023-08-07T00:49:04;13.60;99.90
11087;DHT22;5597;47.588;9.642;2023-08-07T00:51:31;13.60;99.90
11087;DHT22;5597;47.588;9.642;2023-08-07T00:53:57;13.60;99.90
11087;DHT22;5597;47.588;9.642;2023-08-07T00:56:25;13.60;99.90
11087;DHT22;5597;47.588;9.642;2023-08-07T00:58:51;13.60;99.90
11087;DHT22;5597;47.588;9.642;2023-08-07T01:01:17;13.60;99.90
11087;DHT22;5597;47.588;9.642;2023-08-07T01:03:43;13.60;99.90
11087;DHT22;5597;47.588;9.642;2023-08-07T01:06:09;13.60;99.90
11087;DHT22;5597;47.588;9.642;2023-08-07T01:08:35;13.60;99.90
11087;DHT22;5597;47.588;9.642;2023-08-07T01:14:35;13.60;99.90
11087;DHT22;5597;47.588;9.642;2023-08-07T01:17:15;13.60;99.90
11087;DHT22;5597;47.588;9.642;2023-08-07T01:19:42;13.60;99.90
11087;DHT22;5597;47.588;9.642;2023-08-07T01:22:16;13.60;99.90
11087;DHT22;5597;47.588;9.642;2023-08-07T01:24:47;13.60;99.90
11087;DHT22;5597;47.588;9.642;2023-08-07T01:27:22;13.60;99.90
11087;DHT22;5597;47.588;9.642;2023-08-07T01:33:12;13.60;99.90
11087;DHT22;5597;47.588;9.642;2023-08-07T01:35:51;13.60;99.90
11087;DHT22;5597;47.588;9.642;2023-08-07T01:38:17;13.60;99.90
11087;DHT22;5597;47.588;9.642;2023-08-07T01:40:46;13.60;99.90
11087;DHT22;5597;47.588;9.642;2023-08-07T01:43:13;13.50;99.90
11087;DHT22;5597;47.588;9.642;2023-08-07T01:45:38;13.60;99.90
11087;DHT22;5597;47.588;9.642;2023-08-07T01:48:04;13.60;99.90
11087;DHT22;5597;47.588;9.642;2023-08-07T01:50:30;13.60;99.90
11087;DHT22;5597;47.588;9.642;2023-08-07T01:52:56;13.60;99.90
11087;DHT22;5597;47.588;9.642;2023-08-07T01:55:22;13.60;99.90
11087;DHT22;5597;47.588;9.642;2023-08-07T01:57:48;13.60;99.90
11087;DHT22;5597;47.588;9.642;2023-08-07T02:00:14;13.50;99.90
11087;DHT22;5597;47.588;9.642;2023-08-07T02:02:39;13.50;99.90
11087;DHT22;5597;47.588;9.642;2023-08-07T02:05:05;13.50;99.90
11087;DHT22;5597;47.588;9.642;2023-08-07T02:07:32;13.50;99.90
11087;DHT22;5597;47.588;9.642;2023-08-07T02:09:57;13.50;99.90
11087;DHT22;5597;47.588;9.642;2023-08-07T02:12:23;13.50;99.90
11087;DHT22;5597;47.588;9.642;2023-08-07T02:14:50;13.50;99.90
11087;DHT22;5597;47.588;9.642;2023-08-07T02:17:16;13.50;99.90
11087;DHT22;5597;47.588;9.642;2023-08-07T02:19:42;13.50;99.90
11087;DHT22;5597;47.588;9.642;2023-08-07T02:22:07;13.40;99.90
11087;DHT22;5597;47.588;9.642;2023-08-07T02:24:33;13.40;99.90
11087;DHT22;5597;47.588;9.642;2023-08-07T02:26:59;13.40;99.90
11087;DHT22;5597;47.588;9.642;2023-08-07T02:29:24;13.40;99.90
11087;DHT22;5597;47.588;9.642;2023-08-07T02:31:50;13.30;99.90
11087;DHT22;5597;47.588;9.642;2023-08-07T02:34:16;13.30;99.90
11087;DHT22;5597;47.588;9.642;2023-08-07T02:36:41;13.30;99.90
11087;DHT22;5597;47.588;9.642;2023-08-07T02:39:07;13.30;99.90
11087;DHT22;5597;47.588;9.642;2023-08-07T02:41:33;13.30;99.90
11087;DHT22;5597;47.588;9.642;2023-08-07T02:43:58;13.20;99.90
11087;DHT22;5597;47.588;9.642;2023-08-07T02:46:24;13.20;99.90
11087;DHT22;5597;47.588;9.642;2023-08-07T02:48:50;13.20;99.90
11087;DHT22;5597;47.588;9.642;2023-08-07T02:51:15;13.20;99.90
11087;DHT22;5597;47.588;9.642;2023-08-07T02:53:41;13.20;99.90
11087;DHT22;5597;47.588;9.642;2023-08-07T02:56:07;13.20;99.90
11087;DHT22;5597;47.588;9.642;2023-08-07T02:58:32;13.20;99.90
11087;DHT22;5597;47.588;9.642;2023-08-07T03:01:06;13.20;99.90
11087;DHT22;5597;47.588;9.642;2023-08-07T03:03:32;13.20;99.90
11087;DHT22;5597;47.588;9.642;2023-08-07T03:05:58;13.20;99.90
11087;DHT22;5597;47.588;9.642;2023-08-07T03:08:24;13.20;99.90
11087;DHT22;5597;47.588;9.642;2023-08-07T03:10:53;13.20;99.90
11087;DHT22;5597;47.588;9.642;2023-08-07T03:13:21;13.20;99.90
11087;DHT22;5597;47.588;9.642;2023-08-07T03:15:47;13.20;99.90
11087;DHT22;5597;47.588;9.642;2023-08-07T03:18:15;13.20;99.90
11087;DHT22;5597;47.588;9.642;2023-08-07T03:20:41;13.20;99.90
11087;DHT22;5597;47.588;9.642;2023-08-07T03:23:11;13.20;99.90
11087;DHT22;5597;47.588;9.642;2023-08-07T03:25:37;13.20;99.90
11087;DHT22;5597;47.588;9.642;2023-08-07T03:28:03;13.20;99.90
11087;DHT22;5597;47.588;9.642;2023-08-07T03:30:29;13.20;99.90
11087;DHT22;5597;47.588;9.642;2023-08-07T03:32:54;13.20;99.90
11087;DHT22;5597;47.588;9.642;2023-08-07T03:35:20;13.20;99.90
11087;DHT22;5597;47.588;9.642;2023-08-07T03:37:46;13.20;99.90
11087;DHT22;5597;47.588;9.642;2023-08-07T03:40:11;13.20;99.90
11087;DHT22;5597;47.588;9.642;2023-08-07T03:42:37;13.20;99.90
11087;DHT22;5597;47.588;9.642;2023-08-07T03:45:03;13.20;99.90
11087;DHT22;5597;47.588;9.642;2023-08-07T03:47:28;13.10;99.90
11087;DHT22;5597;47.588;9.642;2023-08-07T03:49:54;13.10;99.90
11087;DHT22;5597;47.588;9.642;2023-08-07T03:52:20;13.10;99.90
11087;DHT22;5597;47.588;9.642;2023-08-07T03:54:46;13.10;99.90
11087;DHT22;5597;47.588;9.642;2023-08-07T03:57:11;13.10;99.90
11087;DHT22;5597;47.588;9.642;2023-08-07T03:59:37;13.10;99.90
11087;DHT22;5597;47.588;9.642;2023-08-07T04:02:03;13.10;99.90
11087;DHT22;5597;47.588;9.642;2023-08-07T04:04:29;13.00;99.90
11087;DHT22;5597;47.588;9.642;2023-08-07T04:06:54;13.00;99.90
11087;DHT22;5597;47.588;9.642;2023-08-07T04:09:20;13.00;99.90
11087;DHT22;5597;47.588;9.642;2023-08-07T04:11:46;13.00;99.90
11087;DHT22;5597;47.588;9.642;2023-08-07T04:14:11;13.00;99.90
11087;DHT22;5597;47.588;9.642;2023-08-07T04:16:37;12.90;99.90
11087;DHT22;5597;47.588;9.642;2023-08-07T04:19:03;12.90;99.90
11087;DHT22;5597;47.588;9.642;2023-08-07T04:21:32;12.90;99.90
11087;DHT22;5597;47.588;9.642;2023-08-07T04:23:57;12.90;99.90
11087;DHT22;5597;47.588;9.642;2023-08-07T04:26:26;12.80;99.90
11087;DHT22;5597;47.588;9.642;2023-08-07T04:28:51;12.80;99.90
11087;DHT22;5597;47.588;9.642;2023-08-07T04:31:17;12.80;99.90
11087;DHT22;5597;47.588;9.642;2023-08-07T04:33:43;12.80;99.90
11087;DHT22;5597;47.588;9.642;2023-08-07T04:36:08;12.90;99.90
11087;DHT22;5597;47.588;9.642;2023-08-07T04:38:34;12.90;99.90
11087;DHT22;5597;47.588;9.642;2023-08-07T04:40:59;12.90;99.90
11087;DHT22;5597;47.588;9.642;2023-08-07T04:43:25;12.90;99.90
11087;DHT22;5597;47.588;9.642;2023-08-07T04:45:51;13.00;99.90
11087;DHT22;5597;47.588;9.642;2023-08-07T04:48:17;13.10;99.90
11087;DHT22;5597;47.588;9.642;2023-08-07T04:50:43;13.10;99.90
11087;DHT22;5597;47.588;9.642;2023-08-07T04:53:09;13.20;99.90
11087;DHT22;5597;47.588;9.642;2023-08-07T04:55:34;13.20;99.90
11087;DHT22;5597;47.588;9.642;2023-08-07T04:58:00;13.20;99.90
11087;DHT22;5597;47.588;9.642;2023-08-07T05:00:27;13.20;99.90
11087;DHT22;5597;47.588;9.642;2023-08-07T05:02:53;13.20;99.90
11087;DHT22;5597;47.588;9.642;2023-08-07T05:05:18;13.20;99.90
11087;DHT22;5597;47.588;9.642;2023-08-07T05:07:47;13.30;99.90
11087;DHT22;5597;47.588;9.642;2023-08-07T05:10:13;13.30;99.90
11087;DHT22;5597;47.588;9.642;2023-08-07T05:12:38;13.30;99.90
11087;DHT22;5597;47.588;9.642;2023-08-07T05:15:05;13.30;99.90
11087;DHT22;5597;47.588;9.642;2023-08-07T05:17:31;13.30;99.90
11087;DHT22;5597;47.588;9.642;2023-08-07T05:19:57;13.30;99.90
11087;DHT22;5597;47.588;9.642;2023-08-07T05:22:23;13.30;99.90
11087;DHT22;5597;47.588;9.642;2023-08-07T05:24:49;13.30;99.90
11087;DHT22;5597;47.588;9.642;2023-08-07T05:27:14;13.30;99.90
11087;DHT22;5597;47.588;9.642;2023-08-07T05:29:40;13.30;99.90
11087;DHT22;5597;47.588;9.642;2023-08-07T05:32:13;13.30;99.90
11087;DHT22;5597;47.588;9.642;2023-08-07T05:34:39;13.20;99.90
11087;DHT22;5597;47.588;9.642;2023-08-07T05:37:05;13.30;99.90
11087;DHT22;5597;47.588;9.642;2023-08-07T05:39:31;13.20;99.90
11087;DHT22;5597;47.588;9.642;2023-08-07T05:41:57;13.20;99.90
11087;DHT22;5597;47.588;9.642;2023-08-07T05:44:26;13.30;99.90
11087;DHT22;5597;47.588;9.642;2023-08-07T05:46:52;13.20;99.90
11087;DHT22;5597;47.588;9.642;2023-08-07T05:49:18;13.30;99.90
11087;DHT22;5597;47.588;9.642;2023-08-07T05:51:44;13.30;99.90
11087;DHT22;5597;47.588;9.642;2023-08-07T05:54:09;13.30;99.90
11087;DHT22;5597;47.588;9.642;2023-08-07T05:56:36;13.30;99.90
11087;DHT22;5597;47.588;9.642;2023-08-07T05:59:02;13.40;99.90
11087;DHT22;5597;47.588;9.642;2023-08-07T06:01:28;13.40;99.90
11087;DHT22;5597;47.588;9.642;2023-08-07T06:04:00;13.40;99.90
11087;DHT22;5597;47.588;9.642;2023-08-07T06:06:26;13.50;99.90
11087;DHT22;5597;47.588;9.642;2023-08-07T06:08:54;13.50;99.90
11087;DHT22;5597;47.588;9.642;2023-08-07T06:11:20;13.50;99.90
11087;DHT22;5597;47.588;9.642;2023-08-07T06:13:45;13.50;99.90
11087;DHT22;5597;47.588;9.642;2023-08-07T06:16:11;13.50;99.90
11087;DHT22;5597;47.588;9.642;2023-08-07T06:18:37;13.50;99.90
11087;DHT22;5597;47.588;9.642;2023-08-07T06:21:03;13.50;99.90
11087;DHT22;5597;47.588;9.642;2023-08-07T06:23:35;13.60;99.90
11087;DHT22;5597;47.588;9.642;2023-08-07T06:26:00;13.60;99.90
11087;DHT22;5597;47.588;9.642;2023-08-07T06:28:30;13.60;99.90
11087;DHT22;5597;47.588;9.642;2023-08-07T06:31:06;13.60;99.90
11087;DHT22;5597;47.588;9.642;2023-08-07T06:33:32;13.60;99.90
11087;DHT22;5597;47.588;9.642;2023-08-07T06:36:00;13.60;99.90
11087;DHT22;5597;47.588;9.642;2023-08-07T06:38:25;13.70;99.90
11087;DHT22;5597;47.588;9.642;2023-08-07T06:40:51;13.70;99.90
11087;DHT22;5597;47.588;9.642;2023-08-07T06:43:17;13.70;99.90
11087;DHT22;5597;47.588;9.642;2023-08-07T06:45:43;13.70;99.90
11087;DHT22;5597;47.588;9.642;2023-08-07T06:48:09;13.70;99.90
11087;DHT22;5597;47.588;9.642;2023-08-07T06:50:34;13.70;99.90
11087;DHT22;5597;47.588;9.642;2023-08-07T06:53:00;13.80;99.90
11087;DHT22;5597;47.588;9.642;2023-08-07T06:55:26;13.80;99.90
11087;DHT22;5597;47.588;9.642;2023-08-07T06:57:52;13.70;99.90
11087;DHT22;5597;47.588;9.642;2023-08-07T07:00:18;13.80;99.90
11087;DHT22;5597;47.588;9.642;2023-08-07T07:02:43;13.80;99.90
11087;DHT22;5597;47.588;9.642;2023-08-07T07:05:09;13.90;99.90
11087;DHT22;5597;47.588;9.642;2023-08-07T07:07:35;13.90;99.90
11087;DHT22;5597;47.588;9.642;2023-08-07T07:10:01;13.90;99.90
11087;DHT22;5597;47.588;9.642;2023-08-07T07:12:29;14.00;99.90
11087;DHT22;5597;47.588;9.642;2023-08-07T07:14:55;14.00;99.90
11087;DHT22;5597;47.588;9.642;2023-08-07T07:17:21;14.00;99.90
11087;DHT22;5597;47.588;9.642;2023-08-07T07:19:46;14.10;99.90
11087;DHT22;5597;47.588;9.642;2023-08-07T07:22:12;14.10;99.90
11087;DHT22;5597;47.588;9.642;2023-08-07T07:24:38;14.10;99.90
11087;DHT22;5597;47.588;9.642;2023-08-07T07:27:04;14.10;99.90
11087;DHT22;5597;47.588;9.642;2023-08-07T07:29:29;14.10;99.90
11087;DHT22;5597;47.588;9.642;2023-08-07T07:31:55;14.10;99.90
11087;DHT22;5597;47.588;9.642;2023-08-07T07:34:21;14.10;99.90
11087;DHT22;5597;47.588;9.642;2023-08-07T07:36:47;14.10;99.90
11087;DHT22;5597;47.588;9.642;2023-08-07T07:39:13;14.10;99.90
11087;DHT22;5597;47.588;9.642;2023-08-07T07:41:39;14.10;99.90
11087;DHT22;5597;47.588;9.642;2023-08-07T07:44:05;14.10;99.90
11087;DHT22;5597;47.588;9.642;2023-08-07T07:46:31;14.00;99.90
11087;DHT22;5597;47.588;9.642;2023-08-07T07:48:58;14.00;99.90
11087;DHT22;5597;47.588;9.642;2023-08-07T07:51:24;14.00;99.90
11087;DHT22;5597;47.588;9.642;2023-08-07T07:53:50;14.00;99.90
11087;DHT22;5597;47.588;9.642;2023-08-07T07:56:16;14.00;99.90
11087;DHT22;5597;47.588;9.642;2023-08-07T07:58:42;13.90;99.90
11087;DHT22;5597;47.588;9.642;2023-08-07T08:01:07;13.90;99.90
11087;DHT22;5597;47.588;9.642;2023-08-07T08:03:34;13.90;99.90
11087;DHT22;5597;47.588;9.642;2023-08-07T08:05:59;13.90;99.90
11087;DHT22;5597;47.588;9.642;2023-08-07T08:08:26;13.80;99.90
11087;DHT22;5597;47.588;9.642;2023-08-07T08:10:51;13.80;99.90
11087;DHT22;5597;47.588;9.642;2023-08-07T08:13:17;13.80;99.90
11087;DHT22;5597;47.588;9.642;2023-08-07T08:15:44;13.80;99.90
11087;DHT22;5597;47.588;9.642;2023-08-07T08:18:10;13.80;99.90
11087;DHT22;5597;47.588;9.642;2023-08-07T08:20:37;13.80;99.90
11087;DHT22;5597;47.588;9.642;2023-08-07T08:23:03;13.90;99.90
11087;DHT22;5597;47.588;9.642;2023-08-07T08:25:29;14.00;99.90
11087;DHT22;5597;47.588;9.642;2023-08-07T08:27:54;14.20;99.90
11087;DHT22;5597;47.588;9.642;2023-08-07T08:30:20;14.40;99.90
11087;DHT22;5597;47.588;9.642;2023-08-07T08:32:46;14.50;99.90
11087;DHT22;5597;47.588;9.642;2023-08-07T08:35:12;14.70;99.90
11087;DHT22;5597;47.588;9.642;2023-08-07T08:37:38;14.80;99.90
11087;DHT22;5597;47.588;9.642;2023-08-07T08:40:04;15.00;99.90
11087;DHT22;5597;47.588;9.642;2023-08-07T08:42:32;15.20;99.90
11087;DHT22;5597;47.588;9.642;2023-08-07T08:44:59;15.30;99.90
11087;DHT22;5597;47.588;9.642;2023-08-07T08:47:29;15.40;99.90
11087;DHT22;5597;47.588;9.642;2023-08-07T08:52:26;15.90;99.90
11087;DHT22;5597;47.588;9.642;2023-08-07T08:54:52;16.10;99.90
11087;DHT22;5597;47.588;9.642;2023-08-07T08:57:18;16.20;99.90
11087;DHT22;5597;47.588;9.642;2023-08-07T08:59:45;16.40;99.90
11087;DHT22;5597;47.588;9.642;2023-08-07T09:02:10;16.60;99.90
11087;DHT22;5597;47.588;9.642;2023-08-07T09:04:37;16.70;99.90
11087;DHT22;5597;47.588;9.642;2023-08-07T09:07:03;16.80;99.90
11087;DHT22;5597;47.588;9.642;2023-08-07T09:09:30;16.90;99.90
11087;DHT22;5597;47.588;9.642;2023-08-07T09:11:57;17.00;99.90
11087;DHT22;5597;47.588;9.642;2023-08-07T09:14:27;16.90;99.90
11087;DHT22;5597;47.588;9.642;2023-08-07T09:16:58;16.90;99.90
11087;DHT22;5597;47.588;9.642;2023-08-07T09:19:27;16.90;99.90
11087;DHT22;5597;47.588;9.642;2023-08-07T09:21:53;17.00;99.90
11087;DHT22;5597;47.588;9.642;2023-08-07T09:24:19;16.90;99.90
11087;DHT22;5597;47.588;9.642;2023-08-07T09:26:47;17.10;99.90
11087;DHT22;5597;47.588;9.642;2023-08-07T09:29:13;17.30;99.90
11087;DHT22;5597;47.588;9.642;2023-08-07T09:31:43;17.40;99.90
11087;DHT22;5597;47.588;9.642;2023-08-07T09:34:10;17.30;99.90
11087;DHT22;5597;47.588;9.642;2023-08-07T09:36:37;17.40;99.90
11087;DHT22;5597;47.588;9.642;2023-08-07T09:39:03;17.40;99.90
11087;DHT22;5597;47.588;9.642;2023-08-07T09:41:32;17.40;99.90
11087;DHT22;5597;47.588;9.642;2023-08-07T09:44:09;17.40;99.90
11087;DHT22;5597;47.588;9.642;2023-08-07T09:46:43;17.40;99.90
11087;DHT22;5597;47.588;9.642;2023-08-07T09:49:09;17.30;99.90
11087;DHT22;5597;47.588;9.642;2023-08-07T09:51:46;17.40;99.90
11087;DHT22;5597;47.588;9.642;2023-08-07T09:54:12;17.70;99.90
11087;DHT22;5597;47.588;9.642;2023-08-07T09:56:40;18.10;99.90
11087;DHT22;5597;47.588;9.642;2023-08-07T09:59:06;18.20;99.90
11087;DHT22;5597;47.588;9.642;2023-08-07T10:01:38;18.30;99.90
11087;DHT22;5597;47.588;9.642;2023-08-07T10:04:05;18.40;99.90
11087;DHT22;5597;47.588;9.642;2023-08-07T10:06:31;18.40;99.90
11087;DHT22;5597;47.588;9.642;2023-08-07T10:08:57;18.30;99.90
11087;DHT22;5597;47.588;9.642;2023-08-07T10:11:25;18.20;99.90
11087;DHT22;5597;47.588;9.642;2023-08-07T10:13:51;18.20;99.90
11087;DHT22;5597;47.588;9.642;2023-08-07T10:16:17;18.20;99.90
11087;DHT22;5597;47.588;9.642;2023-08-07T10:18:43;18.00;99.90
11087;DHT22;5597;47.588;9.642;2023-08-07T10:21:08;17.80;99.90
11087;DHT22;5597;47.588;9.642;2023-08-07T10:23:35;17.50;99.90
11087;DHT22;5597;47.588;9.642;2023-08-07T10:26:04;17.20;99.90
11087;DHT22;5597;47.588;9.642;2023-08-07T10:28:33;16.90;99.90
11087;DHT22;5597;47.588;9.642;2023-08-07T10:31:04;16.70;99.90
11087;DHT22;5597;47.588;9.642;2023-08-07T10:33:31;16.50;99.90
11087;DHT22;5597;47.588;9.642;2023-08-07T10:35:57;16.40;99.90
11087;DHT22;5597;47.588;9.642;2023-08-07T10:38:25;16.30;99.90
11087;DHT22;5597;47.588;9.642;2023-08-07T10:41:02;16.40;99.90
11087;DHT22;5597;47.588;9.642;2023-08-07T10:43:31;16.40;99.90
11087;DHT22;5597;47.588;9.642;2023-08-07T10:46:20;16.20;99.90
11087;DHT22;5597;47.588;9.642;2023-08-07T10:48:54;16.00;99.90
11087;DHT22;5597;47.588;9.642;2023-08-07T10:51:20;15.80;99.90
11087;DHT22;5597;47.588;9.642;2023-08-07T10:53:49;15.70;99.90
11087;DHT22;5597;47.588;9.642;2023-08-07T10:56:19;15.50;99.90
11087;DHT22;5597;47.588;9.642;2023-08-07T10:58:54;15.40;99.90
11087;DHT22;5597;47.588;9.642;2023-08-07T11:04:06;15.20;99.90
11087;DHT22;5597;47.588;9.642;2023-08-07T11:06:36;15.10;99.90
11087;DHT22;5597;47.588;9.642;2023-08-07T11:09:05;15.00;99.90
11087;DHT22;5597;47.588;9.642;2023-08-07T11:11:44;14.80;99.90
11087;DHT22;5597;47.588;9.642;2023-08-07T11:14:14;14.70;99.90
11087;DHT22;5597;47.588;9.642;2023-08-07T11:16:40;14.60;99.90
11087;DHT22;5597;47.588;9.642;2023-08-07T11:19:07;14.70;99.90
11087;DHT22;5597;47.588;9.642;2023-08-07T11:21:34;14.60;99.90
11087;DHT22;5597;47.588;9.642;2023-08-07T11:24:00;14.60;99.90
11087;DHT22;5597;47.588;9.642;2023-08-07T11:26:26;14.50;99.90
11087;DHT22;5597;47.588;9.642;2023-08-07T11:28:54;14.30;99.90
11087;DHT22;5597;47.588;9.642;2023-08-07T11:31:21;14.30;99.90
11087;DHT22;5597;47.588;9.642;2023-08-07T11:33:50;14.40;99.90
11087;DHT22;5597;47.588;9.642;2023-08-07T11:36:16;14.70;99.90
11087;DHT22;5597;47.588;9.642;2023-08-07T11:38:43;14.90;99.90
11087;DHT22;5597;47.588;9.642;2023-08-07T11:41:15;14.90;99.90
11087;DHT22;5597;47.588;9.642;2023-08-07T11:43:42;14.90;99.90
11087;DHT22;5597;47.588;9.642;2023-08-07T11:46:10;14.80;99.90
11087;DHT22;5597;47.588;9.642;2023-08-07T11:48:38;14.80;99.90
11087;DHT22;5597;47.588;9.642;2023-08-07T11:51:05;14.80;99.90
11087;DHT22;5597;47.588;9.642;2023-08-07T11:53:33;15.00;99.90
11087;DHT22;5597;47.588;9.642;2023-08-07T11:55:59;15.10;99.90
11087;DHT22;5597;47.588;9.642;2023-08-07T11:58:39;15.30;99.90
11087;DHT22;5597;47.588;9.642;2023-08-07T12:01:09;15.70;99.90
11087;DHT22;5597;47.588;9.642;2023-08-07T12:03:37;16.00;99.90
11087;DHT22;5597;47.588;9.642;2023-08-07T12:06:05;16.30;99.90
11087;DHT22;5597;47.588;9.642;2023-08-07T12:11:06;16.70;99.90
11087;DHT22;5597;47.588;9.642;2023-08-07T12:13:33;16.90;99.90
11087;DHT22;5597;47.588;9.642;2023-08-07T12:16:02;17.00;99.90
11087;DHT22;5597;47.588;9.642;2023-08-07T12:18:30;17.10;99.90
11087;DHT22;5597;47.588;9.642;2023-08-07T12:21:00;17.10;99.90
11087;DHT22;5597;47.588;9.642;2023-08-07T12:23:27;17.10;99.90
11087;DHT22;5597;47.588;9.642;2023-08-07T12:25:53;17.00;99.90
11087;DHT22;5597;47.588;9.642;2023-08-07T12:28:19;17.00;99.90
11087;DHT22;5597;47.588;9.642;2023-08-07T12:30:48;17.00;99.90
11087;DHT22;5597;47.588;9.642;2023-08-07T12:33:14;17.30;99.90
11087;DHT22;5597;47.588;9.642;2023-08-07T12:35:40;17.40;99.90
11087;DHT22;5597;47.588;9.642;2023-08-07T12:38:07;17.60;99.90
11087;DHT22;5597;47.588;9.642;2023-08-07T12:40:32;17.90;99.90
11087;DHT22;5597;47.588;9.642;2023-08-07T12:43:01;18.30;99.90
11087;DHT22;5597;47.588;9.642;2023-08-07T12:45:27;18.40;99.90
11087;DHT22;5597;47.588;9.642;2023-08-07T12:47:53;18.50;99.90
11087;DHT22;5597;47.588;9.642;2023-08-07T12:50:19;18.60;99.90
11087;DHT22;5597;47.588;9.642;2023-08-07T12:52:44;19.00;99.90
11087;DHT22;5597;47.588;9.642;2023-08-07T12:55:10;19.40;99.90
11087;DHT22;5597;47.588;9.642;2023-08-07T12:57:40;19.70;99.90
11087;DHT22;5597;47.588;9.642;2023-08-07T13:00:06;19.70;99.90
11087;DHT22;5597;47.588;9.642;2023-08-07T13:02:33;19.50;99.90
11087;DHT22;5597;47.588;9.642;2023-08-07T13:04:59;19.30;99.90
11087;DHT22;5597;47.588;9.642;2023-08-07T13:07:25;19.10;99.90
11087;DHT22;5597;47.588;9.642;2023-08-07T13:09:51;19.00;99.90
11087;DHT22;5597;47.588;9.642;2023-08-07T13:12:16;18.90;99.90
11087;DHT22;5597;47.588;9.642;2023-08-07T13:14:42;18.80;99.90
11087;DHT22;5597;47.588;9.642;2023-08-07T13:17:07;18.60;99.90
11087;DHT22;5597;47.588;9.642;2023-08-07T13:19:34;18.40;99.90
11087;DHT22;5597;47.588;9.642;2023-08-07T13:22:00;18.20;99.90
11087;DHT22;5597;47.588;9.642;2023-08-07T13:24:25;18.00;99.90
11087;DHT22;5597;47.588;9.642;2023-08-07T13:26:51;17.90;99.90
11087;DHT22;5597;47.588;9.642;2023-08-07T13:29:17;17.70;99.90
11087;DHT22;5597;47.588;9.642;2023-08-07T13:31:42;17.60;99.90
11087;DHT22;5597;47.588;9.642;2023-08-07T13:34:11;17.50;99.90
11087;DHT22;5597;47.588;9.642;2023-08-07T13:36:38;17.40;99.90
11087;DHT22;5597;47.588;9.642;2023-08-07T13:39:05;17.40;99.90
11087;DHT22;5597;47.588;9.642;2023-08-07T13:41:32;17.60;99.90
11087;DHT22;5597;47.588;9.642;2023-08-07T13:43:58;18.10;99.90
11087;DHT22;5597;47.588;9.642;2023-08-07T13:46:24;18.70;99.90
11087;DHT22;5597;47.588;9.642;2023-08-07T13:48:50;19.30;99.90
11087;DHT22;5597;47.588;9.642;2023-08-07T13:51:15;19.80;99.90
11087;DHT22;5597;47.588;9.642;2023-08-07T13:53:41;20.10;99.90
11087;DHT22;5597;47.588;9.642;2023-08-07T13:56:07;20.20;99.90
11087;DHT22;5597;47.588;9.642;2023-08-07T13:58:40;20.10;99.90
11087;DHT22;5597;47.588;9.642;2023-08-07T14:01:06;19.90;99.90
11087;DHT22;5597;47.588;9.642;2023-08-07T14:03:33;19.60;99.90
11087;DHT22;5597;47.588;9.642;2023-08-07T14:05:59;19.30;99.90
11087;DHT22;5597;47.588;9.642;2023-08-07T14:08:25;19.00;99.90
11087;DHT22;5597;47.588;9.642;2023-08-07T14:10:51;18.80;99.90
11087;DHT22;5597;47.588;9.642;2023-08-07T14:13:16;18.50;99.90
11087;DHT22;5597;47.588;9.642;2023-08-07T14:15:42;18.20;99.90
11087;DHT22;5597;47.588;9.642;2023-08-07T14:18:08;18.20;99.90
11087;DHT22;5597;47.588;9.642;2023-08-07T14:20:35;18.40;99.90
11087;DHT22;5597;47.588;9.642;2023-08-07T14:23:01;18.80;99.90
11087;DHT22;5597;47.588;9.642;2023-08-07T14:25:27;19.00;99.90
11087;DHT22;5597;47.588;9.642;2023-08-07T14:27:52;19.30;99.90
11087;DHT22;5597;47.588;9.642;2023-08-07T14:30:19;19.60;99.90
11087;DHT22;5597;47.588;9.642;2023-08-07T14:32:45;20.00;99.90
11087;DHT22;5597;47.588;9.642;2023-08-07T14:35:13;20.30;99.90
11087;DHT22;5597;47.588;9.642;2023-08-07T14:37:39;20.50;99.90
11087;DHT22;5597;47.588;9.642;2023-08-07T14:40:06;20.30;99.90
11087;DHT22;5597;47.588;9.642;2023-08-07T14:42:32;20.10;99.90
11087;DHT22;5597;47.588;9.642;2023-08-07T14:44:58;19.70;99.90
11087;DHT22;5597;47.588;9.642;2023-08-07T14:47:24;19.40;99.90
11087;DHT22;5597;47.588;9.642;2023-08-07T14:49:50;19.00;99.90
11087;DHT22;5597;47.588;9.642;2023-08-07T14:52:16;18.70;99.90
11087;DHT22;5597;47.588;9.642;2023-08-07T14:54:42;18.60;99.90
11087;DHT22;5597;47.588;9.642;2023-08-07T14:57:07;18.70;99.90
11087;DHT22;5597;47.588;9.642;2023-08-07T14:59:33;18.80;99.90
11087;DHT22;5597;47.588;9.642;2023-08-07T15:01:59;18.80;99.90
11087;DHT22;5597;47.588;9.642;2023-08-07T15:04:24;18.80;99.90
11087;DHT22;5597;47.588;9.642;2023-08-07T15:06:50;18.80;99.90
11087;DHT22;5597;47.588;9.642;2023-08-07T15:09:16;18.80;99.90
11087;DHT22;5597;47.588;9.642;2023-08-07T15:11:47;18.90;99.90
11087;DHT22;5597;47.588;9.642;2023-08-07T15:14:13;19.00;99.90
11087;DHT22;5597;47.588;9.642;2023-08-07T15:16:39;19.00;99.90
11087;DHT22;5597;47.588;9.642;2023-08-07T15:19:05;18.80;99.90
11087;DHT22;5597;47.588;9.642;2023-08-07T15:21:31;18.70;99.90
11087;DHT22;5597;47.588;9.642;2023-08-07T15:23:56;18.60;99.90
11087;DHT22;5597;47.588;9.642;2023-08-07T15:26:22;18.50;99.90
11087;DHT22;5597;47.588;9.642;2023-08-07T15:28:48;18.20;99.90
11087;DHT22;5597;47.588;9.642;2023-08-07T15:31:14;18.00;99.90
11087;DHT22;5597;47.588;9.642;2023-08-07T15:33:39;17.90;99.90
11087;DHT22;5597;47.588;9.642;2023-08-07T15:36:05;17.80;99.90
11087;DHT22;5597;47.588;9.642;2023-08-07T15:38:31;17.70;99.90
11087;DHT22;5597;47.588;9.642;2023-08-07T15:41:00;17.60;99.90
11087;DHT22;5597;47.588;9.642;2023-08-07T15:43:26;17.40;99.90
11087;DHT22;5597;47.588;9.642;2023-08-07T15:45:52;17.30;99.90
11087;DHT22;5597;47.588;9.642;2023-08-07T15:48:21;17.10;99.90
11087;DHT22;5597;47.588;9.642;2023-08-07T15:50:46;17.00;99.90
11087;DHT22;5597;47.588;9.642;2023-08-07T15:53:12;16.90;99.90
11087;DHT22;5597;47.588;9.642;2023-08-07T15:55:38;16.90;99.90